createdAt,value
2022-08-26T00:01:35.969Z,55.60
2022-08-26T00:07:37.659Z,55.54
2022-08-26T00:13:40.229Z,55.32
2022-08-26T00:19:49.593Z,53.98
2022-08-26T00:25:54.540Z,53.97
2022-08-26T00:31:58.561Z,54.10
2022-08-26T00:38:01.794Z,53.58
2022-08-26T00:44:03.845Z,53.67
2022-08-26T00:50:10.871Z,53.95
2022-08-26T00:56:29.486Z,54.34
2022-08-26T01:02:31.388Z,54.23
2022-08-26T01:08:33.500Z,54.61
2022-08-26T01:14:36.766Z,54.72
2022-08-26T01:20:53.587Z,54.72
2022-08-26T01:27:07.068Z,54.49
2022-08-26T01:33:15.009Z,54.74
2022-08-26T01:39:18.108Z,54.21
2022-08-26T01:45:27.166Z,53.31
2022-08-26T01:51:30.320Z,53.40
2022-08-26T01:57:32.835Z,53.84
2022-08-26T02:03:38.719Z,53.87
2022-08-26T02:09:44.092Z,54.01
2022-08-26T02:15:46.819Z,53.55
2022-08-26T02:21:51.935Z,53.45
2022-08-26T02:27:54.709Z,53.44
2022-08-26T02:34:11.779Z,53.52
2022-08-26T02:40:16.160Z,53.64
2022-08-26T02:46:21.550Z,53.56
2022-08-26T02:52:29.800Z,53.67
2022-08-26T02:58:31.833Z,53.39
2022-08-26T03:04:33.938Z,53.33
2022-08-26T03:10:35.608Z,53.84
2022-08-26T03:16:38.147Z,53.62
2022-08-26T03:22:40.290Z,53.26
2022-08-26T03:29:02.157Z,53.27
2022-08-26T03:35:04.793Z,53.11
2022-08-26T03:41:09.139Z,53.15
2022-08-26T03:47:11.146Z,52.97
2022-08-26T03:53:13.421Z,52.72
2022-08-26T03:59:15.135Z,53.34
2022-08-26T04:05:19.632Z,52.87
2022-08-26T04:11:23.455Z,53.09
2022-08-26T04:17:26.305Z,52.70
2022-08-26T04:23:27.929Z,51.32
2022-08-26T04:29:30.091Z,51.07
2022-08-26T04:35:32.410Z,51.82
2022-08-26T04:41:34.235Z,52.03
2022-08-26T04:47:38.052Z,52.47
2022-08-26T04:53:39.793Z,52.89
2022-08-26T04:59:42.486Z,52.76
2022-08-26T05:05:46.401Z,53.25
2022-08-26T05:11:52.027Z,53.67
2022-08-26T05:17:54.074Z,49.70
2022-08-26T05:23:57.049Z,46.78
2022-08-26T05:29:58.822Z,46.64
2022-08-26T05:36:07.898Z,42.70
2022-08-26T05:42:11.252Z,43.70
2022-08-26T05:48:16.542Z,45.12
2022-08-26T05:54:21.758Z,45.61
2022-08-26T06:00:24.292Z,46.01
2022-08-26T06:06:32.918Z,46.86
2022-08-26T06:12:34.680Z,47.32
2022-08-26T06:18:39.659Z,46.30
2022-08-26T06:24:59.874Z,45.42
2022-08-26T06:31:03.231Z,46.18
2022-08-26T06:37:06.684Z,46.95
2022-08-26T06:43:09.574Z,46.79
2022-08-26T06:49:12.482Z,46.04
2022-08-26T06:55:14.322Z,47.02
2022-08-26T07:01:23.398Z,47.23
2022-08-26T07:07:25.108Z,47.66
2022-08-26T07:13:30.762Z,48.16
2022-08-26T07:19:32.700Z,48.05
2022-08-26T07:25:37.882Z,48.44
2022-08-26T07:31:42.368Z,48.44
2022-08-26T07:37:44.659Z,48.40
2022-08-26T07:43:46.352Z,48.84
2022-08-26T07:49:48.285Z,49.15
2022-08-26T07:55:54.490Z,48.95
2022-08-26T08:02:02.178Z,49.12
2022-08-26T08:08:26.278Z,48.98
2022-08-26T08:14:29.838Z,49.32
2022-08-26T08:20:33.301Z,49.21
2022-08-26T08:26:35.707Z,49.50
2022-08-26T08:32:43.814Z,49.79
2022-08-26T08:38:45.534Z,49.82
2022-08-26T08:44:52.082Z,50.60
2022-08-26T08:51:04.343Z,50.69
2022-08-26T08:57:17.485Z,51.40
2022-08-26T09:03:56.915Z,51.01
2022-08-26T09:10:22.853Z,51.54
2022-08-26T09:17:04.947Z,51.82
2022-08-26T09:23:06.934Z,52.29
2022-08-26T09:29:31.437Z,52.36
2022-08-26T09:35:36.095Z,52.72
2022-08-26T09:41:37.818Z,52.78
2022-08-26T09:47:54.400Z,53.26
2022-08-26T09:53:59.648Z,53.13
2022-08-26T10:00:02.308Z,53.67
2022-08-26T10:06:26.712Z,53.72
2022-08-26T10:12:34.260Z,53.74
2022-08-26T10:18:42.263Z,53.98
2022-08-26T10:24:53.219Z,53.86
2022-08-26T10:31:21.479Z,54.50
2022-08-26T10:37:43.491Z,54.13
2022-08-26T10:43:52.346Z,54.29
2022-08-26T10:49:59.989Z,54.41
2022-08-26T10:56:27.555Z,53.74
2022-08-26T11:02:48.301Z,53.73
2022-08-26T11:08:59.598Z,50.51
2022-08-26T11:15:24.649Z,47.64
2022-08-26T11:21:51.919Z,51.24
2022-08-26T11:28:00.886Z,50.86
2022-08-26T11:34:08.699Z,50.83
2022-08-26T11:40:20.761Z,51.18
2022-08-26T11:46:28.748Z,52.00
2022-08-26T11:52:30.490Z,52.39
2022-08-26T11:58:35.513Z,52.57
2022-08-26T12:04:41.671Z,52.56
2022-08-26T12:10:43.507Z,53.06
2022-08-26T12:16:45.806Z,53.00
2022-08-26T12:22:48.124Z,53.23
2022-08-26T12:29:02.395Z,53.73
2022-08-26T12:35:22.068Z,53.79
2022-08-26T12:41:53.763Z,53.53
2022-08-26T12:48:02.676Z,53.70
2022-08-26T12:54:06.898Z,54.11
2022-08-26T13:00:29.587Z,53.94
2022-08-26T13:06:31.647Z,54.14
2022-08-26T13:12:37.467Z,53.53
2022-08-26T13:18:39.515Z,53.69
2022-08-26T13:24:43.798Z,54.19
2022-08-26T13:30:48.259Z,54.30
2022-08-26T13:36:52.056Z,54.74
2022-08-26T13:42:53.753Z,54.52
2022-08-26T13:48:56.845Z,54.29
2022-08-26T13:55:00.468Z,54.58
2022-08-26T14:01:02.408Z,54.46
2022-08-26T14:07:04.543Z,54.36
2022-08-26T14:13:07.623Z,54.12
2022-08-26T14:19:09.631Z,54.43
2022-08-26T14:25:13.555Z,55.42
2022-08-26T14:31:15.479Z,55.04
2022-08-26T14:37:18.077Z,55.18
2022-08-26T14:43:19.819Z,55.69
2022-08-26T14:49:23.486Z,55.63
2022-08-26T14:55:26.268Z,56.06
2022-08-26T15:01:30.958Z,55.91
2022-08-26T15:07:33.139Z,55.96
2022-08-26T15:13:35.758Z,56.15
2022-08-26T15:19:38.776Z,56.01
2022-08-26T15:25:43.624Z,56.31
2022-08-26T15:31:45.847Z,56.26
2022-08-26T15:37:47.626Z,56.08
2022-08-26T15:43:49.820Z,55.98
2022-08-26T15:49:51.500Z,55.61
2022-08-26T15:55:55.307Z,54.91
2022-08-26T16:02:00.538Z,54.60
2022-08-26T16:08:03.629Z,54.72
2022-08-26T16:14:05.821Z,54.61
2022-08-26T16:20:08.419Z,53.75
2022-08-26T16:26:15.844Z,54.07
2022-08-26T16:32:17.707Z,53.57
2022-08-26T16:38:19.465Z,53.16
2022-08-26T16:44:22.297Z,54.21
2022-08-26T16:50:24.191Z,54.13
2022-08-26T16:56:33.449Z,53.32
2022-08-26T17:02:36.059Z,51.02
2022-08-26T17:08:39.466Z,49.06
2022-08-26T17:14:41.384Z,47.33
2022-08-26T17:20:45.116Z,48.93
2022-08-26T17:26:50.033Z,50.26
2022-08-26T17:32:55.326Z,50.85
2022-08-26T17:38:59.830Z,51.49
2022-08-26T17:45:01.569Z,51.54
2022-08-26T17:51:13.655Z,51.22
2022-08-26T17:57:15.470Z,51.92
2022-08-26T18:03:19.237Z,51.86
2022-08-26T18:09:21.245Z,51.75
2022-08-26T18:15:23.214Z,52.53
2022-08-26T18:21:27.311Z,53.06
2022-08-26T18:27:29.019Z,53.48
2022-08-26T18:33:31.157Z,53.87
2022-08-26T18:39:33.010Z,53.94
2022-08-26T18:45:34.795Z,53.99
2022-08-26T18:51:38.252Z,52.19
2022-08-26T18:57:40.141Z,54.35
2022-08-26T19:03:42.696Z,54.40
2022-08-26T19:09:44.408Z,54.95
2022-08-26T19:15:46.969Z,54.99
2022-08-26T19:21:48.834Z,55.08
2022-08-26T19:27:50.599Z,55.46
2022-08-26T19:33:52.740Z,55.71
2022-08-26T19:39:54.484Z,55.46
2022-08-26T19:45:56.404Z,55.45
2022-08-26T19:51:58.848Z,55.88
2022-08-26T19:58:00.733Z,56.27
2022-08-26T20:04:02.936Z,56.57
2022-08-26T20:10:07.058Z,56.58
2022-08-26T20:16:11.613Z,56.65
2022-08-26T20:22:13.923Z,56.63
2022-08-26T20:28:15.624Z,56.43
2022-08-26T20:34:18.870Z,56.93
2022-08-26T20:40:21.423Z,56.74
2022-08-26T20:46:25.419Z,56.33
2022-08-26T20:52:27.971Z,56.32
2022-08-26T20:58:30.059Z,56.40
2022-08-26T21:04:31.940Z,56.54
2022-08-26T21:10:33.748Z,56.61
2022-08-26T21:16:37.224Z,56.23
2022-08-26T21:22:39.083Z,56.33
2022-08-26T21:28:43.741Z,56.34
2022-08-26T21:34:45.460Z,56.07
2022-08-26T21:41:00.814Z,56.44
2022-08-26T21:47:03.510Z,56.41
2022-08-26T21:53:05.783Z,56.40
2022-08-26T21:59:08.387Z,56.07
2022-08-26T22:05:10.400Z,55.85
2022-08-26T22:11:12.280Z,56.13
2022-08-26T22:17:14.080Z,55.89
2022-08-26T22:23:15.782Z,56.06
2022-08-26T22:29:18.793Z,56.31
2022-08-26T22:35:28.887Z,55.66
2022-08-26T22:41:33.442Z,55.97
2022-08-26T22:47:35.911Z,56.33
2022-08-26T22:53:39.319Z,56.05
2022-08-26T22:59:44.111Z,56.24
2022-08-26T23:05:48.064Z,56.09
2022-08-26T23:11:55.002Z,55.60
2022-08-26T23:17:58.531Z,55.73
2022-08-26T23:24:01.157Z,55.86
2022-08-26T23:30:08.407Z,55.37
2022-08-26T23:36:13.593Z,55.36
2022-08-26T23:42:18.949Z,55.76
2022-08-26T23:48:21.735Z,55.52
2022-08-26T23:54:24.131Z,55.85
